Flight Track Log - Related Links

Times and Time Zones

All times are in EDT time to prevent confusion due to time zone crossing. See the SWA16 flight status page for this flight to view local times or setup timezone preferences in your user account.

Time Position Orientation Groundspeed Altitude Reporting Facility
EDT Latitude Longitude Course Direction KTS MPH feet Rate Location/Type
Fri 11:12:54 AM 29.6314 -95.2919 47° Northeast 118 136 800  Level Houston Center
Fri 11:14:14 AM 29.6597 -95.2572 47° Northeast 252 290 3,600 1,796 Climbing Houston Center
Fri 11:15:11 AM 29.7197 -95.2625 356° North 258 297 4,900 2,471 Climbing Houston Center
Fri 11:16:13 AM 29.8061 -95.2739 353° North 306 352 8,500 4,161 Climbing Houston Center
Fri 11:17:15 AM 29.9061 -95.3033 346° North 309 356 13,500 3,774 Climbing Houston Center
Fri 11:18:17 AM 29.9908 -95.3267 347° North 310 357 16,300 2,832 Climbing Houston Center
Fri 11:19:20 AM 30.0803 -95.3506 347° North 323 372 19,400 2,832 Climbing Houston Center
Fri 11:20:22 AM 30.1717 -95.3761 346° North 333 383 22,200 1,742 Climbing Houston Center
Fri 11:21:24 AM 30.2658 -95.4022 347° North 344 396 23,000 774 Climbing Houston Center
Fri 11:22:26 AM 30.3608 -95.4286 347° North 348 400 23,800 1,306 Climbing Houston Center
Fri 11:23:28 AM 30.4819 -95.4614 347° North 367 422 25,700 1,500 Climbing Houston Center
Fri 11:24:30 AM 30.5933 -95.4881 348° North 399 459 26,900 1,161 Climbing Houston Center
Fri 11:25:32 AM 30.7183 -95.5167 349° North 435 501 28,100 1,694 Climbing Houston Center
Fri 11:26:34 AM 30.8453 -95.5450 349° North 454 522 30,400 1,872 Climbing Houston Center
Fri 11:27:37 AM 30.9728 -95.5744 349° North 463 533 32,000 768 Climbing Houston Center
Fri 11:28:39 AM 31.0969 -95.6031 349° North 455 524 32,000  Level Houston Center
Fri 11:29:41 AM 31.2433 -95.6367 349° North 447 514 32,000 -242 Level Houston Center
Fri 11:30:43 AM 31.3647 -95.6681 348° North 445 512 31,500 -726 Descending Houston Center
Fri 11:31:45 AM 31.4711 -95.7372 331° Northwest 437 503 30,500 -1,597 Descending Houston Center
Fri 11:32:47 AM 31.5753 -95.8067 330° Northwest 430 495 28,200 -3,145 Descending Houston Center
Fri 11:33:49 AM 31.6792 -95.8772 330° Northwest 430 495 24,000 -2,855 Descending Houston Center
Fri 11:34:51 AM 31.7842 -95.9444 331° Northwest 428 493 22,300 -1,984 Descending Houston Center
Fri 11:35:53 AM 31.8803 -96.0103 330° Northwest 404 465 19,900 -2,496 Descending Houston Center
Fri 11:36:56 AM 31.9928 -96.0869 330° Northwest 389 448 17,100 -2,592 Descending Houston Center
Fri 11:37:58 AM 32.0872 -96.1500 331° Northwest 377 434 14,500 -2,371 Descending Houston Center
Fri 11:39:00 AM 32.1769 -96.2106 330° Northwest 371 427 12,200 -1,810 Descending Houston Center
Fri 11:39:54 AM 32.2603 -96.2636 332° Northwest 365 420 11,000 -1,333 Descending Fort Worth Center

Login

Don't have an account? Register now (free) for customized features, flight alerts, and more!